sensor_id;sensor_type;location;lat;lon;timestamp;temperature;humidity
41437;DHT22;27178;49.460;10.850;2023-01-08T00:01:29;9.60;78.60
41437;DHT22;27178;49.460;10.850;2023-01-08T00:03:57;9.50;78.40
41437;DHT22;27178;49.460;10.850;2023-01-08T00:06:26;9.50;78.50
41437;DHT22;27178;49.460;10.850;2023-01-08T00:08:54;9.50;78.50
41437;DHT22;27178;49.460;10.850;2023-01-08T00:11:22;9.50;78.70
41437;DHT22;27178;49.460;10.850;2023-01-08T00:13:52;9.50;78.90
41437;DHT22;27178;49.460;10.850;2023-01-08T00:16:20;9.40;78.70
41437;DHT22;27178;49.460;10.850;2023-01-08T00:18:49;9.40;78.80
41437;DHT22;27178;49.460;10.850;2023-01-08T00:21:17;9.40;78.80
41437;DHT22;27178;49.460;10.850;2023-01-08T00:23:46;9.40;78.90
41437;DHT22;27178;49.460;10.850;2023-01-08T00:26:15;9.40;78.80
41437;DHT22;27178;49.460;10.850;2023-01-08T00:28:43;9.40;78.60
41437;DHT22;27178;49.460;10.850;2023-01-08T00:31:13;9.30;78.70
41437;DHT22;27178;49.460;10.850;2023-01-08T00:33:41;9.30;79.10
41437;DHT22;27178;49.460;10.850;2023-01-08T00:36:12;9.30;79.30
41437;DHT22;27178;49.460;10.850;2023-01-08T00:38:41;9.30;79.40
41437;DHT22;27178;49.460;10.850;2023-01-08T00:41:09;9.30;79.50
41437;DHT22;27178;49.460;10.850;2023-01-08T00:43:39;9.30;79.50
41437;DHT22;27178;49.460;10.850;2023-01-08T00:46:07;9.30;79.50
41437;DHT22;27178;49.460;10.850;2023-01-08T00:48:37;9.30;79.30
41437;DHT22;27178;49.460;10.850;2023-01-08T00:51:07;9.20;79.10
41437;DHT22;27178;49.460;10.850;2023-01-08T00:53:35;9.20;79.10
41437;DHT22;27178;49.460;10.850;2023-01-08T00:56:06;9.20;79.00
41437;DHT22;27178;49.460;10.850;2023-01-08T00:58:36;9.20;79.00
41437;DHT22;27178;49.460;10.850;2023-01-08T01:01:08;9.20;79.20
41437;DHT22;27178;49.460;10.850;2023-01-08T01:03:39;9.20;79.40
41437;DHT22;27178;49.460;10.850;2023-01-08T01:06:09;9.10;79.60
41437;DHT22;27178;49.460;10.850;2023-01-08T01:08:38;9.20;79.60
41437;DHT22;27178;49.460;10.850;2023-01-08T01:11:07;9.10;79.60
41437;DHT22;27178;49.460;10.850;2023-01-08T01:13:35;9.10;79.50
41437;DHT22;27178;49.460;10.850;2023-01-08T01:16:04;9.10;79.50
41437;DHT22;27178;49.460;10.850;2023-01-08T01:18:34;9.10;79.50
41437;DHT22;27178;49.460;10.850;2023-01-08T01:21:09;9.10;79.50
41437;DHT22;27178;49.460;10.850;2023-01-08T01:23:37;9.10;79.70
41437;DHT22;27178;49.460;10.850;2023-01-08T01:26:05;9.10;79.70
41437;DHT22;27178;49.460;10.850;2023-01-08T01:28:33;9.10;79.60
41437;DHT22;27178;49.460;10.850;2023-01-08T01:31:02;9.10;79.50
41437;DHT22;27178;49.460;10.850;2023-01-08T01:33:30;9.10;79.30
41437;DHT22;27178;49.460;10.850;2023-01-08T01:35:59;9.00;78.90
41437;DHT22;27178;49.460;10.850;2023-01-08T01:38:29;9.00;78.40
41437;DHT22;27178;49.460;10.850;2023-01-08T01:40:58;9.00;77.90
41437;DHT22;27178;49.460;10.850;2023-01-08T01:43:37;8.90;77.80
41437;DHT22;27178;49.460;10.850;2023-01-08T01:46:19;8.80;77.60
41437;DHT22;27178;49.460;10.850;2023-01-08T01:48:52;8.70;77.90
41437;DHT22;27178;49.460;10.850;2023-01-08T01:51:25;8.60;78.30
41437;DHT22;27178;49.460;10.850;2023-01-08T01:53:58;8.50;78.90
41437;DHT22;27178;49.460;10.850;2023-01-08T01:56:28;8.50;79.40
41437;DHT22;27178;49.460;10.850;2023-01-08T01:58:56;8.50;79.80
41437;DHT22;27178;49.460;10.850;2023-01-08T02:01:25;8.50;80.30
41437;DHT22;27178;49.460;10.850;2023-01-08T02:03:54;8.50;80.70
41437;DHT22;27178;49.460;10.850;2023-01-08T02:06:34;8.50;80.80
41437;DHT22;27178;49.460;10.850;2023-01-08T02:09:08;8.50;81.80
41437;DHT22;27178;49.460;10.850;2023-01-08T02:11:44;8.60;81.00
41437;DHT22;27178;49.460;10.850;2023-01-08T02:14:16;8.60;81.80
41437;DHT22;27178;49.460;10.850;2023-01-08T02:16:53;8.70;80.70
41437;DHT22;27178;49.460;10.850;2023-01-08T02:19:35;8.70;80.40
41437;DHT22;27178;49.460;10.850;2023-01-08T02:22:13;8.70;80.10
41437;DHT22;27178;49.460;10.850;2023-01-08T02:24:54;8.70;79.40
41437;DHT22;27178;49.460;10.850;2023-01-08T02:27:28;8.70;79.00
41437;DHT22;27178;49.460;10.850;2023-01-08T02:29:57;8.60;78.50
41437;DHT22;27178;49.460;10.850;2023-01-08T02:32:31;8.60;78.50
41437;DHT22;27178;49.460;10.850;2023-01-08T02:35:00;8.50;78.50
41437;DHT22;27178;49.460;10.850;2023-01-08T02:37:29;8.50;78.10
41437;DHT22;27178;49.460;10.850;2023-01-08T02:40:11;8.40;77.90
41437;DHT22;27178;49.460;10.850;2023-01-08T02:42:47;8.30;78.00
41437;DHT22;27178;49.460;10.850;2023-01-08T02:45:27;8.20;78.50
41437;DHT22;27178;49.460;10.850;2023-01-08T02:48:03;8.10;79.40
41437;DHT22;27178;49.460;10.850;2023-01-08T02:50:38;8.10;81.10
41437;DHT22;27178;49.460;10.850;2023-01-08T02:53:11;8.10;80.70
41437;DHT22;27178;49.460;10.850;2023-01-08T02:55:42;8.10;81.10
41437;DHT22;27178;49.460;10.850;2023-01-08T02:58:14;8.10;81.20
41437;DHT22;27178;49.460;10.850;2023-01-08T03:00:43;8.20;80.80
41437;DHT22;27178;49.460;10.850;2023-01-08T03:03:16;8.20;80.10
41437;DHT22;27178;49.460;10.850;2023-01-08T03:05:48;8.20;79.70
41437;DHT22;27178;49.460;10.850;2023-01-08T03:08:18;8.10;79.70
41437;DHT22;27178;49.460;10.850;2023-01-08T03:10:50;8.20;79.80
41437;DHT22;27178;49.460;10.850;2023-01-08T03:13:25;8.10;80.10
41437;DHT22;27178;49.460;10.850;2023-01-08T03:15:57;8.10;80.10
41437;DHT22;27178;49.460;10.850;2023-01-08T03:18:30;8.10;80.10
41437;DHT22;27178;49.460;10.850;2023-01-08T03:21:02;8.10;80.50
41437;DHT22;27178;49.460;10.850;2023-01-08T03:23:34;8.10;80.80
41437;DHT22;27178;49.460;10.850;2023-01-08T03:26:04;8.10;81.00
41437;DHT22;27178;49.460;10.850;2023-01-08T03:28:37;8.10;81.10
41437;DHT22;27178;49.460;10.850;2023-01-08T03:31:07;8.20;81.30
41437;DHT22;27178;49.460;10.850;2023-01-08T03:33:37;8.20;81.20
41437;DHT22;27178;49.460;10.850;2023-01-08T03:36:07;8.20;81.20
41437;DHT22;27178;49.460;10.850;2023-01-08T03:38:39;8.20;81.10
41437;DHT22;27178;49.460;10.850;2023-01-08T03:41:12;8.30;81.10
41437;DHT22;27178;49.460;10.850;2023-01-08T03:43:43;8.30;81.00
41437;DHT22;27178;49.460;10.850;2023-01-08T03:46:15;8.30;81.10
41437;DHT22;27178;49.460;10.850;2023-01-08T03:48:45;8.30;81.10
41437;DHT22;27178;49.460;10.850;2023-01-08T03:51:14;8.30;80.90
41437;DHT22;27178;49.460;10.850;2023-01-08T03:53:42;8.30;80.80
41437;DHT22;27178;49.460;10.850;2023-01-08T03:56:11;8.30;80.60
41437;DHT22;27178;49.460;10.850;2023-01-08T03:58:40;8.30;80.60
41437;DHT22;27178;49.460;10.850;2023-01-08T04:01:09;8.30;80.40
41437;DHT22;27178;49.460;10.850;2023-01-08T04:03:39;8.30;80.50
41437;DHT22;27178;49.460;10.850;2023-01-08T04:06:07;8.30;80.60
41437;DHT22;27178;49.460;10.850;2023-01-08T04:08:36;8.30;80.50
41437;DHT22;27178;49.460;10.850;2023-01-08T04:11:04;8.30;80.50
41437;DHT22;27178;49.460;10.850;2023-01-08T04:13:32;8.20;80.40
41437;DHT22;27178;49.460;10.850;2023-01-08T04:16:00;8.20;79.90
41437;DHT22;27178;49.460;10.850;2023-01-08T04:18:30;8.20;79.70
41437;DHT22;27178;49.460;10.850;2023-01-08T04:20:58;8.20;79.40
41437;DHT22;27178;49.460;10.850;2023-01-08T04:23:27;8.10;79.50
41437;DHT22;27178;49.460;10.850;2023-01-08T04:25:55;8.10;79.40
41437;DHT22;27178;49.460;10.850;2023-01-08T04:28:24;8.00;79.40
41437;DHT22;27178;49.460;10.850;2023-01-08T04:30:52;8.00;80.50
41437;DHT22;27178;49.460;10.850;2023-01-08T04:33:20;7.90;79.80
41437;DHT22;27178;49.460;10.850;2023-01-08T04:35:51;7.90;80.30
41437;DHT22;27178;49.460;10.850;2023-01-08T04:38:19;7.90;80.50
41437;DHT22;27178;49.460;10.850;2023-01-08T04:40:47;7.90;80.70
41437;DHT22;27178;49.460;10.850;2023-01-08T04:43:15;7.90;80.80
41437;DHT22;27178;49.460;10.850;2023-01-08T04:45:44;7.80;80.80
41437;DHT22;27178;49.460;10.850;2023-01-08T04:48:12;7.90;81.10
41437;DHT22;27178;49.460;10.850;2023-01-08T04:50:40;7.90;81.40
41437;DHT22;27178;49.460;10.850;2023-01-08T04:53:10;7.80;81.30
41437;DHT22;27178;49.460;10.850;2023-01-08T04:55:38;7.90;81.20
41437;DHT22;27178;49.460;10.850;2023-01-08T04:58:07;7.90;81.20
41437;DHT22;27178;49.460;10.850;2023-01-08T05:00:35;7.90;81.00
41437;DHT22;27178;49.460;10.850;2023-01-08T05:03:06;7.90;81.20
41437;DHT22;27178;49.460;10.850;2023-01-08T05:05:34;7.90;81.50
41437;DHT22;27178;49.460;10.850;2023-01-08T05:08:03;7.90;81.80
41437;DHT22;27178;49.460;10.850;2023-01-08T05:10:33;7.90;81.90
41437;DHT22;27178;49.460;10.850;2023-01-08T05:13:01;8.00;81.90
41437;DHT22;27178;49.460;10.850;2023-01-08T05:15:29;8.00;81.80
41437;DHT22;27178;49.460;10.850;2023-01-08T05:18:02;8.00;81.70
41437;DHT22;27178;49.460;10.850;2023-01-08T05:20:32;8.00;81.40
41437;DHT22;27178;49.460;10.850;2023-01-08T05:23:00;8.00;81.30
41437;DHT22;27178;49.460;10.850;2023-01-08T05:25:29;8.00;81.30
41437;DHT22;27178;49.460;10.850;2023-01-08T05:27:59;8.00;81.40
41437;DHT22;27178;49.460;10.850;2023-01-08T05:30:27;8.00;81.60
41437;DHT22;27178;49.460;10.850;2023-01-08T05:32:55;8.00;81.60
41437;DHT22;27178;49.460;10.850;2023-01-08T05:35:23;8.00;81.60
41437;DHT22;27178;49.460;10.850;2023-01-08T05:37:52;8.00;81.80
41437;DHT22;27178;49.460;10.850;2023-01-08T05:40:20;8.00;81.80
41437;DHT22;27178;49.460;10.850;2023-01-08T05:42:49;8.00;81.80
41437;DHT22;27178;49.460;10.850;2023-01-08T05:45:18;8.10;82.00
41437;DHT22;27178;49.460;10.850;2023-01-08T05:47:47;8.10;82.10
41437;DHT22;27178;49.460;10.850;2023-01-08T05:50:15;8.10;82.10
41437;DHT22;27178;49.460;10.850;2023-01-08T05:52:44;8.10;82.10
41437;DHT22;27178;49.460;10.850;2023-01-08T05:55:12;8.10;82.10
41437;DHT22;27178;49.460;10.850;2023-01-08T05:57:40;8.20;82.20
41437;DHT22;27178;49.460;10.850;2023-01-08T06:00:09;8.20;82.20
41437;DHT22;27178;49.460;10.850;2023-01-08T06:02:40;8.20;82.40
41437;DHT22;27178;49.460;10.850;2023-01-08T06:05:13;8.20;82.20
41437;DHT22;27178;49.460;10.850;2023-01-08T06:07:41;8.30;82.10
41437;DHT22;27178;49.460;10.850;2023-01-08T06:10:09;8.30;82.20
41437;DHT22;27178;49.460;10.850;2023-01-08T06:12:38;8.30;82.00
41437;DHT22;27178;49.460;10.850;2023-01-08T06:15:08;8.40;82.20
41437;DHT22;27178;49.460;10.850;2023-01-08T06:17:37;8.40;82.20
41437;DHT22;27178;49.460;10.850;2023-01-08T06:20:07;8.40;82.00
41437;DHT22;27178;49.460;10.850;2023-01-08T06:22:36;8.40;82.10
41437;DHT22;27178;49.460;10.850;2023-01-08T06:25:05;8.40;82.00
41437;DHT22;27178;49.460;10.850;2023-01-08T06:27:33;8.50;82.30
41437;DHT22;27178;49.460;10.850;2023-01-08T06:30:02;8.50;82.20
41437;DHT22;27178;49.460;10.850;2023-01-08T06:32:30;8.50;82.10
41437;DHT22;27178;49.460;10.850;2023-01-08T06:34:58;8.50;82.20
41437;DHT22;27178;49.460;10.850;2023-01-08T06:37:28;8.50;82.10
41437;DHT22;27178;49.460;10.850;2023-01-08T06:39:56;8.50;82.00
41437;DHT22;27178;49.460;10.850;2023-01-08T06:42:24;8.60;82.00
41437;DHT22;27178;49.460;10.850;2023-01-08T06:44:52;8.60;82.00
41437;DHT22;27178;49.460;10.850;2023-01-08T06:47:20;8.60;82.10
41437;DHT22;27178;49.460;10.850;2023-01-08T06:49:48;8.60;82.00
41437;DHT22;27178;49.460;10.850;2023-01-08T06:52:16;8.70;82.00
41437;DHT22;27178;49.460;10.850;2023-01-08T06:54:46;8.70;82.00
41437;DHT22;27178;49.460;10.850;2023-01-08T06:57:14;8.70;81.60
41437;DHT22;27178;49.460;10.850;2023-01-08T06:59:43;8.70;81.60
41437;DHT22;27178;49.460;10.850;2023-01-08T07:02:13;8.80;81.60
41437;DHT22;27178;49.460;10.850;2023-01-08T07:04:42;8.80;81.60
41437;DHT22;27178;49.460;10.850;2023-01-08T07:07:12;8.80;81.40
41437;DHT22;27178;49.460;10.850;2023-01-08T07:09:41;8.80;81.30
41437;DHT22;27178;49.460;10.850;2023-01-08T07:12:12;8.80;81.30
41437;DHT22;27178;49.460;10.850;2023-01-08T07:14:41;8.90;81.40
41437;DHT22;27178;49.460;10.850;2023-01-08T07:17:09;8.80;81.20
41437;DHT22;27178;49.460;10.850;2023-01-08T07:19:38;8.90;81.20
41437;DHT22;27178;49.460;10.850;2023-01-08T07:22:06;8.90;81.20
41437;DHT22;27178;49.460;10.850;2023-01-08T07:24:34;8.90;81.00
41437;DHT22;27178;49.460;10.850;2023-01-08T07:27:03;8.90;81.10
41437;DHT22;27178;49.460;10.850;2023-01-08T07:29:32;8.90;81.10
41437;DHT22;27178;49.460;10.850;2023-01-08T07:32:01;8.90;81.00
41437;DHT22;27178;49.460;10.850;2023-01-08T07:34:29;8.90;81.00
41437;DHT22;27178;49.460;10.850;2023-01-08T07:36:58;8.90;80.80
41437;DHT22;27178;49.460;10.850;2023-01-08T07:39:27;8.90;80.80
41437;DHT22;27178;49.460;10.850;2023-01-08T07:41:55;8.90;80.70
41437;DHT22;27178;49.460;10.850;2023-01-08T07:44:23;8.90;80.60
41437;DHT22;27178;49.460;10.850;2023-01-08T07:46:54;8.90;80.90
41437;DHT22;27178;49.460;10.850;2023-01-08T07:49:22;8.90;80.90
41437;DHT22;27178;49.460;10.850;2023-01-08T07:51:51;8.90;81.00
41437;DHT22;27178;49.460;10.850;2023-01-08T07:54:19;8.90;81.10
41437;DHT22;27178;49.460;10.850;2023-01-08T07:56:47;8.90;81.00
41437;DHT22;27178;49.460;10.850;2023-01-08T07:59:16;8.90;81.00
41437;DHT22;27178;49.460;10.850;2023-01-08T08:01:44;8.90;80.90
41437;DHT22;27178;49.460;10.850;2023-01-08T08:04:15;8.90;81.00
41437;DHT22;27178;49.460;10.850;2023-01-08T08:06:43;8.90;81.30
41437;DHT22;27178;49.460;10.850;2023-01-08T08:09:11;8.90;81.10
41437;DHT22;27178;49.460;10.850;2023-01-08T08:11:40;8.90;81.20
41437;DHT22;27178;49.460;10.850;2023-01-08T08:14:08;9.00;81.20
41437;DHT22;27178;49.460;10.850;2023-01-08T08:16:37;9.00;81.10
41437;DHT22;27178;49.460;10.850;2023-01-08T08:19:05;9.00;81.30
41437;DHT22;27178;49.460;10.850;2023-01-08T08:21:35;9.00;81.40
41437;DHT22;27178;49.460;10.850;2023-01-08T08:24:04;9.00;81.30
41437;DHT22;27178;49.460;10.850;2023-01-08T08:26:32;9.10;81.40
41437;DHT22;27178;49.460;10.850;2023-01-08T08:29:01;9.10;81.30
41437;DHT22;27178;49.460;10.850;2023-01-08T08:31:29;9.10;81.10
41437;DHT22;27178;49.460;10.850;2023-01-08T08:33:58;9.10;81.10
41437;DHT22;27178;49.460;10.850;2023-01-08T08:36:27;9.10;81.30
41437;DHT22;27178;49.460;10.850;2023-01-08T08:38:57;9.20;81.50
41437;DHT22;27178;49.460;10.850;2023-01-08T08:41:25;9.20;81.20
41437;DHT22;27178;49.460;10.850;2023-01-08T08:43:54;9.20;81.20
41437;DHT22;27178;49.460;10.850;2023-01-08T08:46:22;9.20;81.20
41437;DHT22;27178;49.460;10.850;2023-01-08T08:48:51;9.30;81.20
41437;DHT22;27178;49.460;10.850;2023-01-08T08:51:19;9.30;81.30
41437;DHT22;27178;49.460;10.850;2023-01-08T08:53:47;9.30;81.30
41437;DHT22;27178;49.460;10.850;2023-01-08T08:56:27;9.30;81.30
41437;DHT22;27178;49.460;10.850;2023-01-08T08:58:56;9.30;81.30
41437;DHT22;27178;49.460;10.850;2023-01-08T09:01:24;9.40;81.10
41437;DHT22;27178;49.460;10.850;2023-01-08T09:03:53;9.40;81.20
41437;DHT22;27178;49.460;10.850;2023-01-08T09:06:23;9.40;81.10
41437;DHT22;27178;49.460;10.850;2023-01-08T09:08:53;9.50;81.30
41437;DHT22;27178;49.460;10.850;2023-01-08T09:11:23;9.50;81.20
41437;DHT22;27178;49.460;10.850;2023-01-08T09:13:51;9.50;81.30
41437;DHT22;27178;49.460;10.850;2023-01-08T09:16:20;9.50;81.40
41437;DHT22;27178;49.460;10.850;2023-01-08T09:18:49;9.60;81.40
41437;DHT22;27178;49.460;10.850;2023-01-08T09:21:19;9.60;81.30
41437;DHT22;27178;49.460;10.850;2023-01-08T09:23:47;9.70;81.30
41437;DHT22;27178;49.460;10.850;2023-01-08T09:26:16;9.70;81.40
41437;DHT22;27178;49.460;10.850;2023-01-08T09:28:46;9.80;81.50
41437;DHT22;27178;49.460;10.850;2023-01-08T09:31:14;9.80;81.30
41437;DHT22;27178;49.460;10.850;2023-01-08T09:33:42;9.80;81.30
41437;DHT22;27178;49.460;10.850;2023-01-08T09:36:11;9.90;81.40
41437;DHT22;27178;49.460;10.850;2023-01-08T09:38:40;10.00;81.50
41437;DHT22;27178;49.460;10.850;2023-01-08T09:41:11;10.00;81.40
41437;DHT22;27178;49.460;10.850;2023-01-08T09:43:42;10.00;82.20
41437;DHT22;27178;49.460;10.850;2023-01-08T09:46:13;10.10;81.40
41437;DHT22;27178;49.460;10.850;2023-01-08T09:48:44;10.10;81.40
41437;DHT22;27178;49.460;10.850;2023-01-08T09:51:14;10.20;81.40
41437;DHT22;27178;49.460;10.850;2023-01-08T09:53:43;10.20;81.50
41437;DHT22;27178;49.460;10.850;2023-01-08T09:56:14;10.20;81.40
41437;DHT22;27178;49.460;10.850;2023-01-08T09:58:45;10.20;81.40
41437;DHT22;27178;49.460;10.850;2023-01-08T10:01:19;10.30;81.50
41437;DHT22;27178;49.460;10.850;2023-01-08T10:03:51;10.30;81.40
41437;DHT22;27178;49.460;10.850;2023-01-08T10:06:22;10.30;81.50
41437;DHT22;27178;49.460;10.850;2023-01-08T10:08:51;10.30;81.70
41437;DHT22;27178;49.460;10.850;2023-01-08T10:11:19;10.40;81.70
41437;DHT22;27178;49.460;10.850;2023-01-08T10:13:51;10.40;81.70
41437;DHT22;27178;49.460;10.850;2023-01-08T10:16:27;10.40;81.80
41437;DHT22;27178;49.460;10.850;2023-01-08T10:18:57;10.40;81.90
41437;DHT22;27178;49.460;10.850;2023-01-08T10:21:30;10.40;82.60
41437;DHT22;27178;49.460;10.850;2023-01-08T10:23:58;10.40;81.80
41437;DHT22;27178;49.460;10.850;2023-01-08T10:26:28;10.50;81.90
41437;DHT22;27178;49.460;10.850;2023-01-08T10:29:07;10.40;81.90
41437;DHT22;27178;49.460;10.850;2023-01-08T10:31:47;10.40;82.10
41437;DHT22;27178;49.460;10.850;2023-01-08T10:34:26;10.40;82.20
41437;DHT22;27178;49.460;10.850;2023-01-08T10:36:55;10.40;82.30
41437;DHT22;27178;49.460;10.850;2023-01-08T10:39:25;10.40;82.30
41437;DHT22;27178;49.460;10.850;2023-01-08T10:41:56;10.50;82.20
41437;DHT22;27178;49.460;10.850;2023-01-08T10:44:25;10.50;82.30
41437;DHT22;27178;49.460;10.850;2023-01-08T10:46:57;10.50;82.50
41437;DHT22;27178;49.460;10.850;2023-01-08T10:49:31;10.50;82.90
41437;DHT22;27178;49.460;10.850;2023-01-08T10:52:00;10.50;83.40
41437;DHT22;27178;49.460;10.850;2023-01-08T10:54:33;10.50;82.90
41437;DHT22;27178;49.460;10.850;2023-01-08T10:57:02;10.60;83.10
41437;DHT22;27178;49.460;10.850;2023-01-08T10:59:30;10.60;83.10
41437;DHT22;27178;49.460;10.850;2023-01-08T11:02:01;10.00;82.60
41437;DHT22;27178;49.460;10.850;2023-01-08T11:04:31;10.60;83.20
41437;DHT22;27178;49.460;10.850;2023-01-08T11:07:02;10.60;83.40
41437;DHT22;27178;49.460;10.850;2023-01-08T11:09:33;10.60;83.30
41437;DHT22;27178;49.460;10.850;2023-01-08T11:12:02;10.60;83.40
41437;DHT22;27178;49.460;10.850;2023-01-08T11:14:32;10.60;83.50
41437;DHT22;27178;49.460;10.850;2023-01-08T11:17:09;10.60;83.80
41437;DHT22;27178;49.460;10.850;2023-01-08T11:19:38;10.60;83.80
41437;DHT22;27178;49.460;10.850;2023-01-08T11:22:18;10.60;83.60
41437;DHT22;27178;49.460;10.850;2023-01-08T11:24:48;10.60;83.80
41437;DHT22;27178;49.460;10.850;2023-01-08T11:27:23;10.70;83.80
41437;DHT22;27178;49.460;10.850;2023-01-08T11:29:59;10.70;84.10
41437;DHT22;27178;49.460;10.850;2023-01-08T11:32:42;10.70;84.10
41437;DHT22;27178;49.460;10.850;2023-01-08T11:35:17;10.70;84.10
41437;DHT22;27178;49.460;10.850;2023-01-08T11:37:49;10.70;84.00
41437;DHT22;27178;49.460;10.850;2023-01-08T11:40:27;10.70;83.90
41437;DHT22;27178;49.460;10.850;2023-01-08T11:43:09;10.70;84.10
41437;DHT22;27178;49.460;10.850;2023-01-08T11:45:49;10.70;84.10
41437;DHT22;27178;49.460;10.850;2023-01-08T11:48:38;10.70;83.90
41437;DHT22;27178;49.460;10.850;2023-01-08T11:51:29;10.70;84.50
41437;DHT22;27178;49.460;10.850;2023-01-08T11:54:06;10.70;84.20
41437;DHT22;27178;49.460;10.850;2023-01-08T11:56:54;10.70;84.10
41437;DHT22;27178;49.460;10.850;2023-01-08T11:59:32;10.70;84.20
41437;DHT22;27178;49.460;10.850;2023-01-08T12:02:08;10.70;84.10
41437;DHT22;27178;49.460;10.850;2023-01-08T12:05:05;10.80;84.20
41437;DHT22;27178;49.460;10.850;2023-01-08T12:07:43;10.70;84.10
41437;DHT22;27178;49.460;10.850;2023-01-08T12:10:22;10.80;84.00
41437;DHT22;27178;49.460;10.850;2023-01-08T12:12:57;10.70;84.30
41437;DHT22;27178;49.460;10.850;2023-01-08T12:15:37;10.80;84.40
41437;DHT22;27178;49.460;10.850;2023-01-08T12:18:28;10.80;84.30
41437;DHT22;27178;49.460;10.850;2023-01-08T12:21:05;10.80;84.40
41437;DHT22;27178;49.460;10.850;2023-01-08T12:23:53;9.50;83.50
41437;DHT22;27178;49.460;10.850;2023-01-08T12:26:29;10.80;84.40
41437;DHT22;27178;49.460;10.850;2023-01-08T12:29:18;10.80;84.70
41437;DHT22;27178;49.460;10.850;2023-01-08T12:32:08;10.80;84.60
41437;DHT22;27178;49.460;10.850;2023-01-08T12:34:46;10.80;84.70
41437;DHT22;27178;49.460;10.850;2023-01-08T12:37:24;10.80;85.70
41437;DHT22;27178;49.460;10.850;2023-01-08T12:39:56;10.80;84.80
41437;DHT22;27178;49.460;10.850;2023-01-08T12:42:29;10.80;84.90
41437;DHT22;27178;49.460;10.850;2023-01-08T12:45:01;10.80;84.70
41437;DHT22;27178;49.460;10.850;2023-01-08T12:47:34;10.80;84.80
41437;DHT22;27178;49.460;10.850;2023-01-08T12:50:18;10.90;84.90
41437;DHT22;27178;49.460;10.850;2023-01-08T12:52:51;10.90;85.10
41437;DHT22;27178;49.460;10.850;2023-01-08T12:55:36;10.90;85.10
41437;DHT22;27178;49.460;10.850;2023-01-08T12:58:15;10.90;84.80
41437;DHT22;27178;49.460;10.850;2023-01-08T13:00:52;10.90;84.60
41437;DHT22;27178;49.460;10.850;2023-01-08T13:03:25;11.00;84.60
41437;DHT22;27178;49.460;10.850;2023-01-08T13:06:08;11.00;84.60
41437;DHT22;27178;49.460;10.850;2023-01-08T13:08:40;11.00;84.80
41437;DHT22;27178;49.460;10.850;2023-01-08T13:11:11;11.00;84.60
41437;DHT22;27178;49.460;10.850;2023-01-08T13:13:41;11.00;85.50
41437;DHT22;27178;49.460;10.850;2023-01-08T13:16:19;11.00;84.70
41437;DHT22;27178;49.460;10.850;2023-01-08T13:18:51;11.00;85.00
41437;DHT22;27178;49.460;10.850;2023-01-08T13:21:28;11.00;85.00
41437;DHT22;27178;49.460;10.850;2023-01-08T13:24:28;11.10;85.10
41437;DHT22;27178;49.460;10.850;2023-01-08T13:27:08;11.10;85.10
41437;DHT22;27178;49.460;10.850;2023-01-08T13:29:39;11.10;84.90
41437;DHT22;27178;49.460;10.850;2023-01-08T13:35:21;11.10;85.00
41437;DHT22;27178;49.460;10.850;2023-01-08T13:37:51;11.20;84.90
41437;DHT22;27178;49.460;10.850;2023-01-08T13:40:49;11.20;84.80
41437;DHT22;27178;49.460;10.850;2023-01-08T13:43:21;11.20;85.00
41437;DHT22;27178;49.460;10.850;2023-01-08T13:46:03;11.20;84.80
41437;DHT22;27178;49.460;10.850;2023-01-08T13:48:37;11.20;84.80
41437;DHT22;27178;49.460;10.850;2023-01-08T13:51:27;11.20;84.80
41437;DHT22;27178;49.460;10.850;2023-01-08T13:54:04;11.20;84.90
41437;DHT22;27178;49.460;10.850;2023-01-08T13:56:36;11.20;84.80
41437;DHT22;27178;49.460;10.850;2023-01-08T13:59:04;11.20;84.60
41437;DHT22;27178;49.460;10.850;2023-01-08T14:01:33;11.20;84.60
41437;DHT22;27178;49.460;10.850;2023-01-08T14:04:02;11.20;84.60
41437;DHT22;27178;49.460;10.850;2023-01-08T14:06:30;11.20;84.60
41437;DHT22;27178;49.460;10.850;2023-01-08T14:09:03;11.20;84.60
41437;DHT22;27178;49.460;10.850;2023-01-08T14:14:21;11.30;84.90
41437;DHT22;27178;49.460;10.850;2023-01-08T14:16:51;11.30;84.90
41437;DHT22;27178;49.460;10.850;2023-01-08T14:19:21;11.30;85.00
41437;DHT22;27178;49.460;10.850;2023-01-08T14:21:52;11.30;84.80
41437;DHT22;27178;49.460;10.850;2023-01-08T14:24:23;11.30;84.90
41437;DHT22;27178;49.460;10.850;2023-01-08T14:26:53;11.30;84.90
41437;DHT22;27178;49.460;10.850;2023-01-08T14:29:24;11.30;85.10
41437;DHT22;27178;49.460;10.850;2023-01-08T14:31:55;11.30;85.00
41437;DHT22;27178;49.460;10.850;2023-01-08T14:34:26;11.30;85.00
41437;DHT22;27178;49.460;10.850;2023-01-08T14:36:56;11.30;85.00
41437;DHT22;27178;49.460;10.850;2023-01-08T14:39:31;11.30;84.90
41437;DHT22;27178;49.460;10.850;2023-01-08T14:42:05;11.30;84.80
41437;DHT22;27178;49.460;10.850;2023-01-08T14:44:54;11.30;84.80
41437;DHT22;27178;49.460;10.850;2023-01-08T14:47:28;11.30;84.70
41437;DHT22;27178;49.460;10.850;2023-01-08T14:49:57;11.30;84.70
41437;DHT22;27178;49.460;10.850;2023-01-08T14:52:25;11.30;84.60
41437;DHT22;27178;49.460;10.850;2023-01-08T14:54:56;11.30;84.60
41437;DHT22;27178;49.460;10.850;2023-01-08T14:57:27;11.30;84.80
41437;DHT22;27178;49.460;10.850;2023-01-08T14:59:59;11.30;84.70
41437;DHT22;27178;49.460;10.850;2023-01-08T15:02:30;11.30;84.70
41437;DHT22;27178;49.460;10.850;2023-01-08T15:05:02;11.30;84.80
41437;DHT22;27178;49.460;10.850;2023-01-08T15:07:30;11.20;84.70
41437;DHT22;27178;49.460;10.850;2023-01-08T15:09:59;11.20;84.80
41437;DHT22;27178;49.460;10.850;2023-01-08T15:12:29;11.20;85.70
41437;DHT22;27178;49.460;10.850;2023-01-08T15:15:09;11.20;84.80
41437;DHT22;27178;49.460;10.850;2023-01-08T15:17:39;11.20;85.10
41437;DHT22;27178;49.460;10.850;2023-01-08T15:20:15;11.20;84.90
41437;DHT22;27178;49.460;10.850;2023-01-08T15:22:44;11.20;85.10
41437;DHT22;27178;49.460;10.850;2023-01-08T15:25:15;11.20;84.90
41437;DHT22;27178;49.460;10.850;2023-01-08T15:27:50;11.20;85.00
41437;DHT22;27178;49.460;10.850;2023-01-08T15:30:28;11.20;84.90
41437;DHT22;27178;49.460;10.850;2023-01-08T15:33:07;11.10;84.80
41437;DHT22;27178;49.460;10.850;2023-01-08T15:35:35;11.10;84.80
41437;DHT22;27178;49.460;10.850;2023-01-08T15:38:05;11.10;84.60
41437;DHT22;27178;49.460;10.850;2023-01-08T15:40:34;11.10;84.70
41437;DHT22;27178;49.460;10.850;2023-01-08T15:43:02;11.10;84.60
41437;DHT22;27178;49.460;10.850;2023-01-08T15:45:39;11.10;84.70
41437;DHT22;27178;49.460;10.850;2023-01-08T15:48:08;11.10;84.60
41437;DHT22;27178;49.460;10.850;2023-01-08T15:50:37;11.10;84.60
41437;DHT22;27178;49.460;10.850;2023-01-08T15:53:11;11.00;84.60
41437;DHT22;27178;49.460;10.850;2023-01-08T15:55:39;11.00;84.60
41437;DHT22;27178;49.460;10.850;2023-01-08T15:58:10;11.00;84.50